createdAt,value
2019-04-28T00:00:42.941Z,83.92
2019-04-28T00:03:29.232Z,84.39
2019-04-28T00:06:15.396Z,84.55
2019-04-28T00:09:01.764Z,84.44
2019-04-28T00:11:48.212Z,85.14
2019-04-28T00:14:34.351Z,85.72
2019-04-28T00:17:21.089Z,85.37
2019-04-28T00:20:12.704Z,85.07
2019-04-28T00:23:08.294Z,85.45
2019-04-28T00:26:23.046Z,85.50
2019-04-28T00:29:10.982Z,84.99
2019-04-28T00:31:57.456Z,84.87
2019-04-28T00:34:43.524Z,84.54
2019-04-28T00:37:35.317Z,84.48
2019-04-28T00:40:21.774Z,84.25
2019-04-28T00:43:07.888Z,84.33
2019-04-28T00:45:54.077Z,84.53
2019-04-28T00:48:42.567Z,84.52
2019-04-28T00:51:29.036Z,84.55
2019-04-28T00:54:15.192Z,84.56
2019-04-28T00:57:01.531Z,84.54
2019-04-28T00:59:56.783Z,84.42
2019-04-28T01:02:42.562Z,84.45
2019-04-28T01:05:28.634Z,84.46
2019-04-28T01:08:14.592Z,84.37
2019-04-28T01:11:01.821Z,84.22
2019-04-28T01:13:48.221Z,84.28
2019-04-28T01:16:40.229Z,84.13
2019-04-28T01:19:30.199Z,84.33
2019-04-28T01:22:20.002Z,84.39
2019-04-28T01:25:06.433Z,84.09
2019-04-28T01:27:56.215Z,84.33
2019-04-28T01:31:13.705Z,84.44
2019-04-28T01:34:20.399Z,84.69
2019-04-28T01:37:06.696Z,84.86
2019-04-28T01:39:52.518Z,84.97
2019-04-28T01:42:38.670Z,84.88
2019-04-28T01:45:25.012Z,85.15
2019-04-28T01:48:11.018Z,85.59
2019-04-28T01:50:57.256Z,86.16
2019-04-28T01:53:43.486Z,86.13
2019-04-28T01:56:30.396Z,86.40
2019-04-28T01:59:16.865Z,86.47
2019-04-28T02:02:03.936Z,86.37
2019-04-28T02:04:50.306Z,86.40
2019-04-28T02:07:36.477Z,86.29
2019-04-28T02:10:22.756Z,86.41
2019-04-28T02:13:09.564Z,85.98
2019-04-28T02:15:57.077Z,85.84
2019-04-28T02:18:43.654Z,85.50
2019-04-28T02:21:59.522Z,85.66
2019-04-28T02:24:45.826Z,85.22
2019-04-28T02:27:32.216Z,85.07
2019-04-28T02:30:22.622Z,85.67
2019-04-28T02:33:06.759Z,85.56
2019-04-28T02:35:52.845Z,85.19
2019-04-28T02:38:41.743Z,85.07
2019-04-28T02:41:27.772Z,85.28
2019-04-28T02:44:14.082Z,85.08
2019-04-28T02:47:01.026Z,84.70
2019-04-28T02:49:56.183Z,85.36
2019-04-28T02:53:01.589Z,85.09
2019-04-28T02:55:47.872Z,84.56
2019-04-28T02:58:34.120Z,84.91
2019-04-28T03:01:26.112Z,84.90
2019-04-28T03:04:12.134Z,84.46
2019-04-28T03:06:56.202Z,84.21
2019-04-28T03:09:42.346Z,84.17
2019-04-28T03:12:31.180Z,84.17
2019-04-28T03:15:16.368Z,84.51
2019-04-28T03:18:02.476Z,84.24
2019-04-28T03:20:51.509Z,84.27
2019-04-28T03:23:36.931Z,84.45
2019-04-28T03:26:33.266Z,84.50
2019-04-28T03:29:42.355Z,84.57
2019-04-28T03:32:43.939Z,84.82
2019-04-28T03:35:22.884Z,84.79
2019-04-28T03:38:10.640Z,84.86
2019-04-28T03:40:56.527Z,84.77
2019-04-28T03:43:42.896Z,84.24
2019-04-28T03:46:30.936Z,83.98
2019-04-28T03:49:33.311Z,83.10
2019-04-28T03:52:21.213Z,83.39
2019-04-28T03:55:07.605Z,83.32
2019-04-28T03:57:53.577Z,83.45
2019-04-28T04:00:40.844Z,82.89
2019-04-28T04:03:27.401Z,83.22
2019-04-28T04:06:13.586Z,83.03
2019-04-28T04:09:00.395Z,82.56
2019-04-28T04:12:06.449Z,82.58
2019-04-28T04:15:18.282Z,82.89
2019-04-28T04:18:11.010Z,82.56
2019-04-28T04:20:57.123Z,82.47
2019-04-28T04:23:43.411Z,82.42
2019-04-28T04:26:31.124Z,82.27
2019-04-28T04:29:17.744Z,82.45
2019-04-28T04:32:15.579Z,82.30
2019-04-28T04:34:52.188Z,82.27
2019-04-28T04:37:40.646Z,82.10
2019-04-28T04:40:26.583Z,81.77
2019-04-28T04:43:12.612Z,81.83
2019-04-28T04:46:17.884Z,81.29
2019-04-28T04:49:03.731Z,81.02
2019-04-28T04:51:50.929Z,81.46
2019-04-28T04:54:37.066Z,81.12
2019-04-28T04:57:23.079Z,80.82
2019-04-28T05:00:12.517Z,80.86
2019-04-28T05:03:04.451Z,80.87
2019-04-28T05:05:50.342Z,80.56
2019-04-28T05:08:36.301Z,80.42
2019-04-28T05:11:22.408Z,80.40
2019-04-28T05:14:11.585Z,80.49
2019-04-28T05:16:56.577Z,80.59
2019-04-28T05:19:42.991Z,80.75
2019-04-28T05:22:30.936Z,80.27
2019-04-28T05:25:24.665Z,80.57
2019-04-28T05:28:10.788Z,80.13
2019-04-28T05:30:57.062Z,80.31
2019-04-28T05:33:43.133Z,80.12
2019-04-28T05:36:35.090Z,79.97
2019-04-28T05:39:19.468Z,79.49
2019-04-28T05:42:05.836Z,79.80
2019-04-28T05:44:52.041Z,79.00
2019-04-28T05:47:38.221Z,78.76
2019-04-28T05:50:30.197Z,78.57
2019-04-28T05:53:22.478Z,78.47
2019-04-28T05:56:26.882Z,77.30
2019-04-28T05:59:19.305Z,77.19
2019-04-28T06:02:10.338Z,77.30
2019-04-28T06:04:59.815Z,76.73
2019-04-28T06:07:54.236Z,76.33
2019-04-28T06:10:40.556Z,75.26
2019-04-28T06:13:26.615Z,74.96
2019-04-28T06:16:12.970Z,74.66
2019-04-28T06:18:59.989Z,74.34
2019-04-28T06:21:46.249Z,74.17
2019-04-28T06:24:32.661Z,74.03
2019-04-28T06:27:18.656Z,74.71
2019-04-28T06:30:05.192Z,75.48
2019-04-28T06:32:51.131Z,74.80
2019-04-28T06:35:37.326Z,73.69
2019-04-28T06:38:23.521Z,74.08
2019-04-28T06:41:09.577Z,73.55
2019-04-28T06:43:55.695Z,73.88
2019-04-28T06:46:42.236Z,72.77
2019-04-28T06:49:28.038Z,73.04
2019-04-28T06:52:14.222Z,72.62
2019-04-28T06:55:00.773Z,71.50
2019-04-28T06:57:46.527Z,69.71
2019-04-28T07:00:32.957Z,68.60
2019-04-28T07:03:23.204Z,68.91
2019-04-28T07:06:07.326Z,68.18
2019-04-28T07:08:53.399Z,69.47
2019-04-28T07:11:39.572Z,68.14
2019-04-28T07:14:25.656Z,68.85
2019-04-28T07:17:12.008Z,70.39
2019-04-28T07:20:20.478Z,68.93
2019-04-28T07:23:07.268Z,69.47
2019-04-28T07:25:53.633Z,70.63
2019-04-28T07:28:40.034Z,70.52
2019-04-28T07:31:26.247Z,69.69
2019-04-28T07:34:12.147Z,68.40
2019-04-28T07:36:58.473Z,68.75
2019-04-28T07:39:44.507Z,66.60
2019-04-28T07:42:30.610Z,66.61
2019-04-28T07:45:16.872Z,63.98
2019-04-28T07:48:03.491Z,63.15
2019-04-28T07:50:49.957Z,62.48
2019-04-28T07:53:41.641Z,60.77
2019-04-28T07:56:27.826Z,61.33
2019-04-28T07:59:13.816Z,61.91
2019-04-28T08:02:00.118Z,60.48
2019-04-28T08:04:47.739Z,59.69
2019-04-28T08:07:33.961Z,56.21
2019-04-28T08:10:20.101Z,55.12
2019-04-28T08:13:06.646Z,57.02
2019-04-28T08:15:52.643Z,57.80
2019-04-28T08:18:38.891Z,59.32
2019-04-28T08:21:24.740Z,58.71
2019-04-28T08:24:10.841Z,58.91
2019-04-28T08:26:57.316Z,60.04
2019-04-28T08:29:43.232Z,57.53
2019-04-28T08:32:58.191Z,55.60
2019-04-28T08:35:44.045Z,53.39
2019-04-28T08:38:30.472Z,54.47
2019-04-28T08:41:16.656Z,58.71
2019-04-28T08:44:02.762Z,56.58
2019-04-28T08:46:48.816Z,57.49
2019-04-28T08:49:35.116Z,58.02
2019-04-28T08:52:21.237Z,56.71
2019-04-28T08:55:07.501Z,55.66
2019-04-28T08:57:53.691Z,56.69
2019-04-28T09:00:39.712Z,56.90
2019-04-28T09:03:25.991Z,54.88
2019-04-28T09:06:12.041Z,55.49
2019-04-28T09:08:58.260Z,57.63
2019-04-28T09:11:44.552Z,59.33
2019-04-28T09:14:30.587Z,60.76
2019-04-28T09:17:16.866Z,59.93
2019-04-28T09:20:03.216Z,59.31
2019-04-28T09:22:49.311Z,58.52
2019-04-28T09:25:35.596Z,60.52
2019-04-28T09:28:21.838Z,63.00
2019-04-28T09:31:07.901Z,62.07
2019-04-28T09:33:54.146Z,64.43
2019-04-28T09:36:40.587Z,63.05
2019-04-28T09:39:44.992Z,64.36
2019-04-28T09:42:59.525Z,63.74
2019-04-28T09:45:51.237Z,63.28
2019-04-28T09:48:37.686Z,60.85
2019-04-28T09:51:24.037Z,59.60
2019-04-28T09:54:10.296Z,57.82
2019-04-28T09:56:57.250Z,55.15
2019-04-28T09:59:45.097Z,56.76
2019-04-28T10:02:31.559Z,56.62
2019-04-28T10:05:18.037Z,57.83
2019-04-28T10:08:04.596Z,58.71
2019-04-28T10:10:51.017Z,58.89
2019-04-28T10:13:37.217Z,59.19
2019-04-28T10:16:23.376Z,60.61
2019-04-28T10:19:10.098Z,61.76
2019-04-28T10:21:56.677Z,61.65
2019-04-28T10:24:43.256Z,61.56
2019-04-28T10:27:29.617Z,61.77
2019-04-28T10:30:17.737Z,62.24
2019-04-28T10:33:04.057Z,60.24
2019-04-28T10:35:50.200Z,61.82
2019-04-28T10:38:38.377Z,63.31
2019-04-28T10:41:32.918Z,64.81
2019-04-28T10:44:19.623Z,62.97
2019-04-28T10:47:05.997Z,65.27
2019-04-28T10:49:52.260Z,65.10
2019-04-28T10:52:38.257Z,65.83
2019-04-28T10:55:24.622Z,66.95
2019-04-28T10:58:10.882Z,66.41
2019-04-28T11:00:57.040Z,65.76
2019-04-28T11:03:45.695Z,64.10
2019-04-28T11:06:32.157Z,60.63
2019-04-28T11:09:30.840Z,60.32
2019-04-28T11:12:21.519Z,58.03
2019-04-28T11:15:14.937Z,58.29
2019-04-28T11:18:01.397Z,57.66
2019-04-28T11:20:48.297Z,58.22
2019-04-28T11:23:34.863Z,57.49
2019-04-28T11:26:21.520Z,55.44
2019-04-28T11:29:08.737Z,55.36
2019-04-28T11:31:55.177Z,56.60
2019-04-28T11:34:48.097Z,59.27
2019-04-28T11:37:34.557Z,60.04
2019-04-28T11:40:23.539Z,59.47
2019-04-28T11:43:09.637Z,59.61
2019-04-28T11:45:56.158Z,60.17
2019-04-28T11:48:45.297Z,60.84
2019-04-28T11:51:34.499Z,58.87
2019-04-28T11:54:20.980Z,57.95
2019-04-28T11:57:07.215Z,56.31
2019-04-28T11:59:54.263Z,62.33
2019-04-28T12:02:40.538Z,66.28
2019-04-28T12:05:34.554Z,61.70
2019-04-28T12:08:20.316Z,60.15
2019-04-28T12:11:26.296Z,60.39
2019-04-28T12:14:16.958Z,57.15
2019-04-28T12:17:14.430Z,57.24
2019-04-28T12:20:15.897Z,57.13
2019-04-28T12:23:02.558Z,60.55
2019-04-28T12:25:50.397Z,60.88
2019-04-28T12:28:36.838Z,59.00
2019-04-28T12:31:23.376Z,59.08
2019-04-28T12:34:09.918Z,58.62
2019-04-28T12:36:56.076Z,59.24
2019-04-28T12:39:42.298Z,58.97
2019-04-28T12:42:28.777Z,59.56
2019-04-28T12:45:15.176Z,57.72
2019-04-28T12:48:01.497Z,59.85
2019-04-28T12:50:50.657Z,57.74
2019-04-28T12:53:36.877Z,57.36
2019-04-28T12:56:23.578Z,58.72
2019-04-28T12:59:16.161Z,61.79
2019-04-28T13:02:08.362Z,63.30
2019-04-28T13:04:57.587Z,63.50
2019-04-28T13:07:46.836Z,62.03
2019-04-28T13:10:33.341Z,62.24
2019-04-28T13:13:22.917Z,61.14
2019-04-28T13:16:09.257Z,60.99
2019-04-28T13:18:55.918Z,59.59
2019-04-28T13:21:42.355Z,57.79
2019-04-28T13:24:29.047Z,57.69
2019-04-28T13:27:15.797Z,57.04
2019-04-28T13:30:02.639Z,57.54
2019-04-28T13:32:48.825Z,57.38
2019-04-28T13:35:35.392Z,56.37
2019-04-28T13:38:29.135Z,55.46
2019-04-28T13:41:15.758Z,53.73
2019-04-28T13:44:04.178Z,52.76
2019-04-28T13:46:50.151Z,53.85
2019-04-28T13:49:52.247Z,53.75
2019-04-28T13:52:39.042Z,53.16
2019-04-28T13:56:03.411Z,51.79
2019-04-28T13:59:05.271Z,52.86
2019-04-28T14:02:07.777Z,52.45
2019-04-28T14:05:10.417Z,53.56
2019-04-28T14:07:56.336Z,51.66
2019-04-28T14:10:42.903Z,52.17
2019-04-28T14:13:31.020Z,54.42
2019-04-28T14:16:17.289Z,52.66
2019-04-28T14:19:03.893Z,53.44
2019-04-28T14:21:50.699Z,54.00
2019-04-28T14:24:37.341Z,53.77
2019-04-28T14:27:23.865Z,52.75
2019-04-28T14:30:10.917Z,51.70
2019-04-28T14:32:57.498Z,51.59
2019-04-28T14:35:43.904Z,52.81
2019-04-28T14:38:30.811Z,52.67
2019-04-28T14:41:17.521Z,51.70
2019-04-28T14:44:04.139Z,52.44
2019-04-28T14:46:51.079Z,51.93
2019-04-28T14:49:37.697Z,52.47
2019-04-28T14:52:24.157Z,50.13
2019-04-28T14:55:11.057Z,53.17
2019-04-28T14:57:57.337Z,50.91
2019-04-28T15:00:48.712Z,50.82
2019-04-28T15:03:38.097Z,53.02
2019-04-28T15:06:32.919Z,52.00
2019-04-28T15:09:37.639Z,53.29
2019-04-28T15:12:26.973Z,52.81
2019-04-28T15:15:13.498Z,52.43
2019-04-28T15:18:01.703Z,53.21
2019-04-28T15:20:47.826Z,51.35
2019-04-28T15:23:34.193Z,50.62
2019-04-28T15:26:20.621Z,52.20
2019-04-28T15:29:06.628Z,55.66
2019-04-28T15:31:53.013Z,50.35
2019-04-28T15:34:38.908Z,53.94
2019-04-28T15:37:34.989Z,52.05
2019-04-28T15:40:21.331Z,51.67
2019-04-28T15:43:07.493Z,52.92
2019-04-28T15:45:53.473Z,54.84
2019-04-28T15:48:39.507Z,54.73
2019-04-28T15:51:25.883Z,54.43
2019-04-28T15:54:12.179Z,54.77
2019-04-28T15:56:58.285Z,53.86
2019-04-28T15:59:44.521Z,56.92
2019-04-28T16:02:30.956Z,54.67
2019-04-28T16:05:17.693Z,54.60
2019-04-28T16:08:04.223Z,54.58
2019-04-28T16:10:50.203Z,55.05
2019-04-28T16:13:36.493Z,54.24
2019-04-28T16:16:22.736Z,56.42
2019-04-28T16:19:08.744Z,54.34
2019-04-28T16:21:55.167Z,55.04
2019-04-28T16:24:41.348Z,54.72
2019-04-28T16:27:28.073Z,54.22
2019-04-28T16:30:14.283Z,53.71
2019-04-28T16:33:00.494Z,53.41
2019-04-28T16:35:46.780Z,54.00
2019-04-28T16:38:33.259Z,54.58
2019-04-28T16:41:19.694Z,56.02
2019-04-28T16:44:05.888Z,56.57
2019-04-28T16:46:52.279Z,58.86
2019-04-28T16:49:38.888Z,56.12
2019-04-28T16:52:24.984Z,56.02
2019-04-28T16:55:18.338Z,56.68
2019-04-28T16:58:20.738Z,56.16
2019-04-28T17:01:22.981Z,54.51
2019-04-28T17:04:09.523Z,55.87
2019-04-28T17:06:56.197Z,56.36
2019-04-28T17:09:42.116Z,55.45
2019-04-28T17:12:28.768Z,56.80
2019-04-28T17:15:14.839Z,55.18
2019-04-28T17:18:01.109Z,54.95
2019-04-28T17:20:47.858Z,55.53
2019-04-28T17:23:34.253Z,54.17
2019-04-28T17:26:20.124Z,55.06
2019-04-28T17:29:06.345Z,55.09
2019-04-28T17:31:52.577Z,53.99
2019-04-28T17:34:39.312Z,54.93
2019-04-28T17:37:25.742Z,54.80
2019-04-28T17:40:12.888Z,56.91
2019-04-28T17:42:59.353Z,56.26
2019-04-28T17:45:46.228Z,55.97
2019-04-28T17:48:36.498Z,56.03
2019-04-28T17:51:22.768Z,56.15
2019-04-28T17:54:09.559Z,56.48
2019-04-28T17:56:56.797Z,55.55
2019-04-28T17:59:44.043Z,54.68
2019-04-28T18:02:47.764Z,56.60
2019-04-28T18:05:39.974Z,57.45
2019-04-28T18:08:26.819Z,57.71
2019-04-28T18:11:13.394Z,60.13
2019-04-28T18:13:59.835Z,60.36
2019-04-28T18:17:15.240Z,60.63
2019-04-28T18:20:02.032Z,60.82
2019-04-28T18:22:48.468Z,61.35
2019-04-28T18:25:34.828Z,62.20
2019-04-28T18:28:21.688Z,62.97
2019-04-28T18:31:26.268Z,63.24
2019-04-28T18:34:37.653Z,64.13
2019-04-28T18:37:43.563Z,64.03
2019-04-28T18:41:05.148Z,64.99
2019-04-28T18:44:08.794Z,66.09
2019-04-28T18:46:55.691Z,65.96
2019-04-28T18:49:42.088Z,66.46
2019-04-28T18:52:28.213Z,67.05
2019-04-28T18:55:14.519Z,67.50
2019-04-28T18:58:01.019Z,68.54
2019-04-28T19:00:55.923Z,70.28
2019-04-28T19:03:42.389Z,70.94
2019-04-28T19:06:29.313Z,71.21
2019-04-28T19:09:29.211Z,72.14
2019-04-28T19:12:25.296Z,71.78
2019-04-28T19:15:42.721Z,71.21
2019-04-28T19:18:34.072Z,71.55
2019-04-28T19:21:20.799Z,71.29
2019-04-28T19:24:07.682Z,72.44
2019-04-28T19:26:55.641Z,73.49
2019-04-28T19:29:43.993Z,73.85
2019-04-28T19:32:30.175Z,74.81
2019-04-28T19:35:16.726Z,75.81
2019-04-28T19:38:03.018Z,77.68
2019-04-28T19:40:49.502Z,78.87
2019-04-28T19:43:36.140Z,79.47
2019-04-28T19:46:22.784Z,80.63
2019-04-28T19:49:09.479Z,79.23
2019-04-28T19:51:55.943Z,78.13
2019-04-28T19:55:01.930Z,78.26
2019-04-28T19:58:07.573Z,78.15
2019-04-28T20:01:03.271Z,79.24
2019-04-28T20:03:49.815Z,78.68
2019-04-28T20:06:36.412Z,78.81
2019-04-28T20:09:23.240Z,78.75
2019-04-28T20:12:09.946Z,79.14
2019-04-28T20:14:57.699Z,81.07
2019-04-28T20:17:46.719Z,80.88
2019-04-28T20:20:33.171Z,81.04
2019-04-28T20:23:19.456Z,80.85
2019-04-28T20:26:05.621Z,81.13
2019-04-28T20:28:51.606Z,82.47
2019-04-28T20:31:37.741Z,83.11
2019-04-28T20:34:23.836Z,82.96
2019-04-28T20:37:20.622Z,83.12
2019-04-28T20:40:15.188Z,83.88
2019-04-28T20:43:13.177Z,83.59
2019-04-28T20:45:59.126Z,84.73
2019-04-28T20:48:45.462Z,84.54
2019-04-28T20:51:32.077Z,84.42
2019-04-28T20:54:18.247Z,84.82
2019-04-28T20:57:07.371Z,84.70
2019-04-28T20:59:53.515Z,85.01
2019-04-28T21:02:39.576Z,84.80
2019-04-28T21:05:26.214Z,84.51
2019-04-28T21:08:12.600Z,84.25
2019-04-28T21:10:59.026Z,84.73
2019-04-28T21:13:45.476Z,84.46
2019-04-28T21:16:31.692Z,85.04
2019-04-28T21:19:21.710Z,85.85
2019-04-28T21:22:10.941Z,86.07
2019-04-28T21:25:00.186Z,86.08
2019-04-28T21:27:46.243Z,86.01
2019-04-28T21:30:32.611Z,85.27
2019-04-28T21:33:19.082Z,84.56
2019-04-28T21:36:05.188Z,84.72
2019-04-28T21:39:15.861Z,84.88
2019-04-28T21:42:03.735Z,85.73
2019-04-28T21:45:12.545Z,85.97
2019-04-28T21:47:59.164Z,85.72
2019-04-28T21:50:46.001Z,85.91
2019-04-28T21:53:34.054Z,86.06
2019-04-28T21:56:21.143Z,86.46
2019-04-28T21:59:07.461Z,86.20
2019-04-28T22:01:54.091Z,85.96
2019-04-28T22:04:40.051Z,85.74
2019-04-28T22:07:27.790Z,85.63
2019-04-28T22:10:14.291Z,86.66
2019-04-28T22:13:01.265Z,86.09
2019-04-28T22:15:47.981Z,85.67
2019-04-28T22:18:35.150Z,86.23
2019-04-28T22:21:23.005Z,86.20
2019-04-28T22:24:18.686Z,86.51
2019-04-28T22:27:06.236Z,86.34
2019-04-28T22:29:52.900Z,86.45
2019-04-28T22:32:40.140Z,86.97
2019-04-28T22:35:27.504Z,86.88
2019-04-28T22:38:14.543Z,86.97
2019-04-28T22:41:01.620Z,87.07
2019-04-28T22:43:48.691Z,87.26
2019-04-28T22:46:35.210Z,87.15
2019-04-28T22:49:24.307Z,87.11
2019-04-28T22:52:10.815Z,87.21
2019-04-28T22:55:16.822Z,87.05
2019-04-28T22:58:34.865Z,87.18
2019-04-28T23:01:24.553Z,87.32
2019-04-28T23:04:36.597Z,87.56
2019-04-28T23:07:22.972Z,87.43
2019-04-28T23:10:09.937Z,87.42
2019-04-28T23:12:57.173Z,87.49
2019-04-28T23:15:43.691Z,87.16
2019-04-28T23:18:30.299Z,87.04
2019-04-28T23:21:32.499Z,86.79
2019-04-28T23:24:18.877Z,86.93
2019-04-28T23:27:05.632Z,87.96
2019-04-28T23:29:52.194Z,87.98
2019-04-28T23:33:00.950Z,87.70
2019-04-28T23:35:48.495Z,87.73
2019-04-28T23:38:34.835Z,87.21
2019-04-28T23:41:44.240Z,87.41
2019-04-28T23:44:30.074Z,86.96
2019-04-28T23:47:16.158Z,87.09
2019-04-28T23:50:02.450Z,86.67
2019-04-28T23:53:06.396Z,86.97
2019-04-28T23:55:52.720Z,86.72
2019-04-28T23:58:38.815Z,87.92
